Time;durP1;ratioP1;P1;durP2;ratioP2;P2;SDS_P1;SDS_P2;PMS_P1;PMS_P2;Temp;Humidity;BMP_temperature;BMP_pressure;BME280_temperature;BME280_humidity;BME280_pressure;Samples;Min_cycle;Max_cycle;Signal;HPM_P1;HPM_P2
2023/03/07 00:01:45;;;;;;;;;2.50;2.00;;;;;5.36;80.68;99744.22;5004950;28;11456;-66
2023/03/07 00:04:12;;;;;;;;;1.00;1.00;;;;;5.38;81.26;99746.69;5015555;28;11478;-66
2023/03/07 00:06:38;;;;;;;;;4.25;4.00;;;;;5.41;80.34;99751.66;5000790;28;11600;-67
2023/03/07 00:09:06;;;;;;;;;0.75;0.75;;;;;5.38;80.82;99747.50;5017308;28;11486;-66
2023/03/07 00:11:32;;;;;;;;;1.00;1.00;;;;;5.41;80.78;99752.47;5019063;28;11568;-66
2023/03/07 00:13:59;;;;;;;;;1.00;1.00;;;;;5.45;80.76;99769.75;5015124;28;11468;-64
2023/03/07 00:16:26;;;;;;;;;5.50;4.00;;;;;5.34;80.85;99782.75;5015373;28;11533;-65
2023/03/07 00:18:54;;;;;;;;;2.00;1.00;;;;;5.14;79.71;99766.50;5013276;28;11438;-66
2023/03/07 00:21:21;;;;;;;;;2.00;1.25;;;;;5.07;80.55;99766.44;5016090;28;11427;-66
2023/03/07 00:23:51;;;;;;;;;0.50;0.50;;;;;4.97;79.42;99760.53;5015384;28;11492;-66
2023/03/07 00:26:20;;;;;;;;;1.00;1.00;;;;;4.88;80.05;99767.78;5005162;28;11509;-66
2023/03/07 00:28:49;;;;;;;;;0.00;0.00;;;;;4.76;79.92;99755.94;4992534;28;11521;-66
2023/03/07 00:31:16;;;;;;;;;0.00;0.00;;;;;4.74;80.44;99765.97;5011776;28;12423;-65
2023/03/07 00:33:43;;;;;;;;;0.75;0.75;;;;;4.75;80.44;99770.28;5019551;28;11423;-64
2023/03/07 00:36:13;;;;;;;;;0.00;0.00;;;;;4.78;80.75;99766.41;4998106;28;11468;-65
2023/03/07 00:38:41;;;;;;;;;0.00;0.00;;;;;4.83;80.46;99764.88;4997472;28;11503;-65
2023/03/07 00:41:12;;;;;;;;;0.00;0.00;;;;;4.87;80.56;99765.34;5019692;28;11453;-64
2023/03/07 00:43:39;;;;;;;;;1.00;1.00;;;;;4.89;79.83;99768.63;5016839;28;11450;-65
2023/03/07 00:46:07;;;;;;;;;0.00;0.00;;;;;4.88;80.37;99766.97;5013694;28;11579;-62
2023/03/07 00:48:36;;;;;;;;;2.00;2.00;;;;;4.92;80.33;99766.41;5022168;28;11437;-63
2023/03/07 00:51:05;;;;;;;;;0.25;0.25;;;;;4.95;80.02;99763.41;5015159;28;11424;-66
2023/03/07 00:53:31;;;;;;;;;0.75;0.50;;;;;4.88;80.03;99761.63;5029946;28;11407;-65
2023/03/07 00:56:04;;;;;;;;;0.00;0.00;;;;;4.88;80.07;99754.47;5011356;28;11469;-63
2023/03/07 00:58:33;;;;;;;;;1.00;1.00;;;;;4.87;79.76;99744.81;5007567;28;11597;-65
2023/03/07 01:01:03;;;;;;;;;0.00;0.00;;;;;4.85;80.04;99749.50;5015688;28;11489;-65
2023/03/07 01:03:31;;;;;;;;;1.00;1.00;;;;;4.89;80.34;99747.28;5021317;28;11440;-65
2023/03/07 01:06:01;;;;;;;;;0.00;0.00;;;;;4.87;80.59;99736.00;5015916;28;11446;-65
2023/03/07 01:08:29;;;;;;;;;0.00;0.00;;;;;4.87;80.49;99736.81;5009973;28;11437;-66
2023/03/07 01:11:00;;;;;;;;;0.00;0.00;;;;;4.87;80.17;99731.50;5014444;28;11454;-66
2023/03/07 01:13:28;;;;;;;;;2.50;0.25;;;;;4.88;80.72;99730.47;5020997;28;11515;-63
2023/03/07 01:15:55;;;;;;;;;0.00;0.00;;;;;4.89;80.24;99726.78;5024450;28;11435;-66
2023/03/07 01:18:22;;;;;;;;;1.00;0.00;;;;;4.89;80.52;99721.44;5023210;28;11463;-66
2023/03/07 01:20:48;;;;;;;;;0.25;0.25;;;;;4.92;80.33;99723.75;5006650;28;11471;-66
2023/03/07 01:23:15;;;;;;;;;0.00;0.00;;;;;4.93;80.56;99728.06;5008242;28;11449;-66
2023/03/07 01:25:42;;;;;;;;;1.00;1.00;;;;;4.93;79.79;99721.91;5010375;28;11449;-66
2023/03/07 01:28:13;;;;;;;;;0.00;0.00;;;;;4.89;79.68;99721.44;5017800;28;11467;-65
2023/03/07 01:30:40;;;;;;;;;0.00;0.00;;;;;4.88;80.01;99719.81;5015719;28;11446;-65
2023/03/07 01:33:08;;;;;;;;;0.00;0.00;;;;;4.95;80.10;99727.91;5017392;28;11454;-64
2023/03/07 01:35:37;;;;;;;;;2.00;0.25;;;;;4.95;79.60;99715.38;5002693;28;11515;-62
2023/03/07 01:38:04;;;;;;;;;0.75;0.00;;;;;4.92;79.58;99717.59;5006489;28;11457;-65
2023/03/07 01:40:32;;;;;;;;;0.00;0.00;;;;;4.91;79.69;99715.94;5004603;28;11438;-64
2023/03/07 01:43:20;;;;;;;;;0.00;0.00;;;;;4.94;80.05;99720.88;5022010;28;11462;-64
2023/03/07 01:45:47;;;;;;;;;0.25;0.00;;;;;4.96;79.34;99713.56;5021436;28;11436;-64
2023/03/07 01:48:15;;;;;;;;;0.00;0.00;;;;;4.91;79.56;99716.78;4998239;28;12319;-64
2023/03/07 01:50:43;;;;;;;;;0.00;0.00;;;;;4.88;79.39;99724.31;5012090;28;11442;-64
2023/03/07 01:53:10;;;;;;;;;0.00;0.00;;;;;4.88;79.41;99717.13;5010631;28;11456;-64
2023/03/07 01:55:37;;;;;;;;;0.00;0.00;;;;;4.89;79.37;99721.44;5013734;28;11439;-63
2023/03/07 01:58:13;;;;;;;;;0.00;0.00;;;;;4.89;79.40;99709.97;5015613;28;11466;-63
2023/03/07 02:00:42;;;;;;;;;0.75;0.00;;;;;4.91;79.36;99708.78;5011455;28;11530;-61
2023/03/07 02:03:24;;;;;;;;;0.00;0.00;;;;;4.91;79.33;99708.78;5002526;28;11460;-62
2023/03/07 02:05:55;;;;;;;;;0.00;0.00;;;;;4.92;79.46;99706.94;5011034;28;11433;-64
2023/03/07 02:08:25;;;;;;;;;0.00;0.00;;;;;4.99;79.03;99707.03;5005916;28;11481;-64
2023/03/07 02:10:52;;;;;;;;;0.00;0.00;;;;;4.95;78.83;99702.06;5030539;28;11491;-63
2023/03/07 02:13:19;;;;;;;;;0.25;0.00;;;;;4.97;79.14;99699.19;5012121;28;12191;-64
2023/03/07 02:15:46;;;;;;;;;0.00;0.00;;;;;4.93;78.93;99693.41;5023856;28;11500;-63
2023/03/07 02:18:17;;;;;;;;;0.50;0.00;;;;;4.95;78.92;99702.06;5003494;28;11551;-63
2023/03/07 02:20:53;;;;;;;;;0.00;0.00;;;;;5.00;78.67;99690.00;5003415;28;11463;-63
2023/03/07 02:23:26;;;;;;;;;0.00;0.00;;;;;5.02;78.64;99688.78;5004141;28;11448;-65
2023/03/07 02:26:06;;;;;;;;;0.25;0.25;;;;;5.05;78.37;99690.25;5032577;28;11439;-63
2023/03/07 02:28:34;;;;;;;;;0.00;0.00;;;;;5.04;78.54;99689.44;5019225;28;11443;-66
2023/03/07 02:31:05;;;;;;;;;0.00;0.00;;;;;5.00;78.21;99679.34;5014196;28;11450;-65
2023/03/07 02:33:35;;;;;;;;;0.00;0.00;;;;;4.99;78.42;99678.50;5011354;28;12217;-66
2023/03/07 02:36:13;;;;;;;;;0.00;0.00;;;;;5.00;78.23;99677.50;4999117;28;11616;-64
2023/03/07 02:39:00;;;;;;;;;0.00;0.00;;;;;4.99;77.96;99667.84;5005089;28;11307;-66
2023/03/07 02:41:31;;;;;;;;;0.00;0.00;;;;;4.95;78.01;99670.06;5027812;28;11464;-63
2023/03/07 02:44:01;;;;;;;;;0.00;0.00;;;;;4.93;78.01;99674.72;5020740;28;11500;-64
2023/03/07 02:46:27;;;;;;;;;0.00;0.00;;;;;4.97;77.95;99677.84;5009622;28;11454;-65
2023/03/07 02:48:54;;;;;;;;;0.00;0.00;;;;;5.01;77.59;99663.13;4994367;28;11437;-64
2023/03/07 02:51:21;;;;;;;;;0.00;0.00;;;;;5.03;77.56;99666.47;5000821;28;11458;-64
2023/03/07 02:53:48;;;;;;;;;1.75;0.00;;;;;4.99;77.65;99673.19;4996397;28;12155;-65
2023/03/07 02:56:16;;;;;;;;;0.00;0.00;;;;;5.03;77.60;99671.78;5015612;28;11464;-65
2023/03/07 02:58:43;;;;;;;;;0.00;0.00;;;;;5.02;77.18;99670.13;5030634;28;11416;-65
2023/03/07 03:01:10;;;;;;;;;0.00;0.00;;;;;5.00;76.94;99674.81;4998434;28;11570;-65
2023/03/07 03:03:36;;;;;;;;;0.75;0.00;;;;;5.00;77.37;99679.34;5009401;28;11486;-66
2023/03/07 03:06:03;;;;;;;;;0.00;0.00;;;;;4.95;76.89;99662.06;4998082;28;11485;-65
2023/03/07 03:08:30;;;;;;;;;0.00;0.00;;;;;4.92;76.95;99667.75;5016435;28;11509;-65
2023/03/07 03:10:56;;;;;;;;;0.00;0.00;;;;;4.80;76.50;99663.09;5013445;28;11453;-65
2023/03/07 03:13:33;;;;;;;;;0.00;0.00;;;;;4.75;76.41;99668.97;5017260;28;12134;-64
2023/03/07 03:16:03;;;;;;;;;0.00;0.00;;;;;4.71;75.82;99657.84;4996013;28;11507;-64
2023/03/07 03:18:31;;;;;;;;;0.00;0.00;;;;;4.73;75.75;99665.66;5012766;28;11587;-65
2023/03/07 03:20:57;;;;;;;;;0.00;0.00;;;;;4.74;75.61;99664.66;4994024;28;11449;-65
2023/03/07 03:23:27;;;;;;;;;0.00;0.00;;;;;4.75;75.73;99655.66;5015203;28;11433;-66
2023/03/07 03:26:01;;;;;;;;;0.50;0.00;;;;;4.75;75.71;99655.66;5003425;28;11496;-66
2023/03/07 03:28:30;;;;;;;;;1.00;1.00;;;;;4.81;75.75;99659.41;4998913;28;11575;-65
2023/03/07 03:30:59;;;;;;;;;0.00;0.00;;;;;4.83;75.52;99657.41;5015478;28;11427;-65
2023/03/07 03:33:28;;;;;;;;;0.00;0.00;;;;;4.82;75.60;99661.91;5009583;28;11465;-65
2023/03/07 03:35:56;;;;;;;;;0.00;0.00;;;;;4.86;75.49;99665.00;4999173;28;11440;-65
2023/03/07 03:38:23;;;;;;;;;0.00;0.00;;;;;4.89;75.42;99662.78;5013063;28;11451;-65
2023/03/07 03:40:50;;;;;;;;;0.00;0.00;;;;;4.89;75.66;99656.63;5020694;28;11435;-64
2023/03/07 03:43:18;;;;;;;;;0.00;0.00;;;;;4.86;75.20;99647.19;5007624;28;11441;-65
2023/03/07 03:45:55;;;;;;;;;0.50;0.00;;;;;4.82;75.20;99645.06;5018173;28;11539;-65
2023/03/07 03:48:24;;;;;;;;;0.00;0.00;;;;;4.74;75.24;99647.81;5005463;28;11458;-65
2023/03/07 03:50:58;;;;;;;;;0.75;0.00;;;;;4.68;74.97;99655.56;5021926;28;11450;-65
2023/03/07 03:53:25;;;;;;;;;0.00;0.00;;;;;4.64;74.74;99658.78;5001310;28;11454;-64
2023/03/07 03:55:51;;;;;;;;;0.00;0.00;;;;;4.59;73.36;99653.19;5013470;28;11433;-65
2023/03/07 03:58:17;;;;;;;;;0.00;0.00;;;;;4.52;73.64;99650.41;5003858;28;11528;-65
2023/03/07 04:00:44;;;;;;;;;0.00;0.00;;;;;4.54;73.08;99661.72;5023601;28;11497;-64
2023/03/07 04:03:10;;;;;;;;;0.00;0.00;;;;;4.55;73.56;99657.22;5011660;28;11518;-64
2023/03/07 04:05:37;;;;;;;;;0.75;0.75;;;;;4.51;73.12;99659.44;5016108;28;11525;-64
2023/03/07 04:08:04;;;;;;;;;0.00;0.00;;;;;4.50;73.22;99667.59;5018294;28;11413;-65
2023/03/07 04:10:31;;;;;;;;;1.00;0.00;;;;;4.47;73.88;99658.16;5024133;28;11445;-65
2023/03/07 04:12:58;;;;;;;;;1.00;1.00;;;;;4.47;74.37;99658.97;5017512;28;11567;-64
2023/03/07 04:15:24;;;;;;;;;0.00;0.00;;;;;4.42;74.86;99658.69;5018128;28;11491;-65
2023/03/07 04:17:50;;;;;;;;;0.00;0.00;;;;;4.42;75.36;99644.56;5017665;28;11412;-64
2023/03/07 04:20:17;;;;;;;;;0.00;0.00;;;;;4.41;75.08;99642.88;5020114;28;12504;-65
2023/03/07 04:22:45;;;;;;;;;0.00;0.00;;;;;4.43;75.39;99643.53;5019839;28;11473;-62
2023/03/07 04:25:12;;;;;;;;;0.00;0.00;;;;;4.41;75.29;99649.03;5017690;28;11428;-64
2023/03/07 04:27:39;;;;;;;;;0.00;0.00;;;;;4.37;75.58;99639.75;5017117;28;11470;-65
2023/03/07 04:30:06;;;;;;;;;0.00;0.00;;;;;4.36;75.27;99638.09;5012888;28;11579;-63
2023/03/07 04:32:33;;;;;;;;;0.00;0.00;;;;;4.39;75.74;99629.75;5004215;28;11482;-65
2023/03/07 04:34:59;;;;;;;;;0.00;0.00;;;;;4.40;75.27;99631.41;5002791;28;11583;-65
2023/03/07 04:37:26;;;;;;;;;0.00;0.00;;;;;4.42;75.20;99624.06;4990715;28;11450;-65
2023/03/07 04:39:53;;;;;;;;;0.00;0.00;;;;;4.43;74.80;99632.88;5019731;28;11534;-64
2023/03/07 04:42:19;;;;;;;;;0.00;0.00;;;;;4.40;74.82;99620.75;5011960;28;11434;-64
2023/03/07 04:44:45;;;;;;;;;1.75;0.00;;;;;4.40;74.54;99628.72;5033059;28;12257;-64
2023/03/07 04:47:12;;;;;;;;;0.00;0.00;;;;;4.42;74.51;99623.25;5012641;28;11452;-64
2023/03/07 04:49:38;;;;;;;;;1.00;0.00;;;;;4.46;74.38;99620.03;5020712;28;11415;-64
2023/03/07 04:52:06;;;;;;;;;0.00;0.00;;;;;4.44;74.16;99619.34;5019754;28;11593;-63
2023/03/07 04:54:32;;;;;;;;;0.00;0.00;;;;;4.44;73.76;99611.38;5011468;28;11678;-62
2023/03/07 04:57:00;;;;;;;;;0.00;0.00;;;;;4.46;73.69;99612.03;5009830;28;11486;-63
2023/03/07 04:59:27;;;;;;;;;0.00;0.00;;;;;4.49;74.00;99610.81;5015290;28;11449;-65
2023/03/07 05:01:53;;;;;;;;;0.00;0.00;;;;;4.53;73.35;99625.41;5011279;28;11629;-65
2023/03/07 05:04:20;;;;;;;;;0.75;0.00;;;;;4.47;72.88;99612.84;5016268;28;11458;-64
2023/03/07 05:06:47;;;;;;;;;0.00;0.00;;;;;4.41;73.16;99617.06;5008892;28;11481;-66
2023/03/07 05:09:13;;;;;;;;;0.00;0.00;;;;;4.36;72.81;99624.78;5012787;28;11596;-65
2023/03/07 05:11:40;;;;;;;;;0.00;0.00;;;;;4.40;73.42;99626.06;5017586;28;11459;-64
2023/03/07 05:14:07;;;;;;;;;1.50;0.00;;;;;4.24;72.56;99631.56;5022612;28;11439;-67
2023/03/07 05:16:33;;;;;;;;;0.00;0.00;;;;;4.04;71.98;99647.25;5015929;28;11463;-66
2023/03/07 05:19:00;;;;;;;;;0.00;0.00;;;;;3.85;73.08;99645.97;5007996;28;11469;-65
2023/03/07 05:21:29;;;;;;;;;0.00;0.00;;;;;3.64;74.84;99646.59;5014213;28;11476;-63
2023/03/07 05:23:55;;;;;;;;;0.50;0.00;;;;;3.58;75.56;99649.19;5007364;28;11435;-64
2023/03/07 05:26:22;;;;;;;;;0.00;0.00;;;;;3.58;75.42;99646.50;5013263;28;11492;-64
2023/03/07 05:28:49;;;;;;;;;0.00;0.00;;;;;3.55;75.90;99660.16;5018549;28;11452;-65
2023/03/07 05:31:15;;;;;;;;;3.00;0.00;;;;;3.46;75.66;99649.59;5025567;28;11422;-64
2023/03/07 05:33:44;;;;;;;;;0.00;0.00;;;;;3.41;76.10;99651.13;5009104;28;11480;-66
2023/03/07 05:36:12;;;;;;;;;0.00;0.00;;;;;3.38;76.34;99652.31;5007840;28;11488;-67
2023/03/07 05:38:40;;;;;;;;;0.00;0.00;;;;;3.45;76.95;99653.25;5003351;28;11449;-68
2023/03/07 05:41:06;;;;;;;;;1.00;0.00;;;;;3.57;77.16;99650.19;5018763;28;11422;-68
2023/03/07 05:43:33;;;;;;;;;0.00;0.00;;;;;3.66;77.15;99654.44;5013586;28;11513;-67
2023/03/07 05:46:00;;;;;;;;;0.00;0.00;;;;;3.68;76.60;99650.56;5005475;28;11468;-66
2023/03/07 05:48:27;;;;;;;;;0.00;0.00;;;;;3.70;76.62;99653.91;5013460;28;11435;-67
2023/03/07 05:50:53;;;;;;;;;0.25;0.25;;;;;3.72;76.54;99656.38;5005116;28;11520;-67
2023/03/07 05:53:20;;;;;;;;;0.00;0.00;;;;;3.75;76.93;99655.19;5011382;28;11497;-65
2023/03/07 05:55:48;;;;;;;;;0.00;0.00;;;;;3.81;76.77;99651.78;5021478;28;11545;-66
2023/03/07 05:58:16;;;;;;;;;0.00;0.00;;;;;3.77;76.57;99654.00;5015842;28;11472;-67
2023/03/07 06:00:44;;;;;;;;;0.25;0.25;;;;;3.78;76.81;99653.00;5013399;28;11513;-68
2023/03/07 06:03:11;;;;;;;;;0.00;0.00;;;;;3.82;76.68;99648.16;5016424;28;11454;-67
2023/03/07 06:05:38;;;;;;;;;0.00;0.00;;;;;3.84;76.67;99646.13;5014628;28;11449;-67
2023/03/07 06:08:05;;;;;;;;;0.00;0.00;;;;;3.86;76.68;99638.78;5002332;28;11491;-65
2023/03/07 06:10:33;;;;;;;;;0.75;0.00;;;;;3.85;76.77;99645.97;5007782;28;11448;-66
2023/03/07 06:13:02;;;;;;;;;0.00;0.00;;;;;3.86;76.49;99647.59;5013934;28;11534;-68
2023/03/07 06:15:28;;;;;;;;;0.00;0.00;;;;;3.86;76.75;99650.25;5009426;28;11449;-67
2023/03/07 06:18:00;;;;;;;;;0.00;0.00;;;;;3.83;76.53;99649.78;5014219;28;11461;-68
2023/03/07 06:20:27;;;;;;;;;1.25;0.00;;;;;3.81;77.29;99651.78;5020389;28;11470;-66
2023/03/07 06:22:54;;;;;;;;;0.00;0.00;;;;;3.78;77.13;99650.34;5005191;28;12257;-67
2023/03/07 06:25:21;;;;;;;;;0.00;0.00;;;;;3.77;77.17;99651.34;5007766;28;11483;-68
2023/03/07 06:27:48;;;;;;;;;0.00;0.00;;;;;3.74;77.11;99651.69;5011137;28;11457;-68
2023/03/07 06:30:15;;;;;;;;;0.25;0.25;;;;;3.71;77.43;99649.41;5025445;28;11434;-67
2023/03/07 06:32:42;;;;;;;;;0.00;0.00;;;;;3.70;77.62;99648.56;5014148;28;12280;-67
2023/03/07 06:35:09;;;;;;;;;1.00;0.00;;;;;3.68;77.53;99655.88;5021417;28;11449;-68
2023/03/07 06:37:35;;;;;;;;;1.00;0.00;;;;;3.66;77.63;99660.56;5009133;28;11677;-65
2023/03/07 06:40:05;;;;;;;;;0.00;0.00;;;;;3.65;77.80;99660.78;5021688;28;11421;-67
2023/03/07 06:42:33;;;;;;;;;0.00;0.00;;;;;3.68;78.02;99666.53;5009525;28;11465;-67
2023/03/07 06:45:00;;;;;;;;;0.00;0.00;;;;;3.67;77.94;99666.72;5016696;28;12291;-67
2023/03/07 06:47:28;;;;;;;;;0.00;0.00;;;;;3.68;77.84;99671.03;5000441;28;11456;-67
2023/03/07 06:49:54;;;;;;;;;0.00;0.00;;;;;3.64;77.81;99667.06;5015273;28;11458;-68
2023/03/07 06:52:21;;;;;;;;;0.00;0.00;;;;;3.68;78.49;99661.22;5009019;28;11449;-68
2023/03/07 06:54:48;;;;;;;;;1.75;1.00;;;;;3.67;78.27;99659.56;5003364;28;12224;-66
2023/03/07 06:57:15;;;;;;;;;0.00;0.00;;;;;3.67;78.28;99666.72;5004499;28;12193;-68
2023/03/07 06:59:42;;;;;;;;;0.00;0.00;;;;;3.67;78.32;99664.88;5012087;28;11470;-68
2023/03/07 07:02:13;;;;;;;;;0.00;0.00;;;;;3.72;78.23;99664.34;5009523;28;11461;-68
2023/03/07 07:04:40;;;;;;;;;1.75;1.00;;;;;3.71;78.30;99660.84;4989918;28;11455;-69
2023/03/07 07:07:06;;;;;;;;;1.50;0.25;;;;;3.69;78.28;99657.56;4990113;28;11514;-65
2023/03/07 07:09:33;;;;;;;;;0.50;0.00;;;;;3.75;78.32;99663.19;4990023;28;11502;-68
2023/03/07 07:12:00;;;;;;;;;0.50;0.50;;;;;3.77;78.22;99661.16;5003224;28;11473;-68
2023/03/07 07:14:26;;;;;;;;;1.00;0.00;;;;;3.78;78.19;99657.50;5033205;28;12212;-66
2023/03/07 07:16:53;;;;;;;;;1.50;0.00;;;;;3.79;78.46;99659.97;5029016;28;11544;-67
2023/03/07 07:19:20;;;;;;;;;0.75;0.75;;;;;3.81;78.54;99663.28;5008580;28;11610;-67
2023/03/07 07:21:47;;;;;;;;;1.00;1.00;;;;;3.91;78.39;99653.22;5010338;28;12306;-68
2023/03/07 07:24:13;;;;;;;;;0.00;0.00;;;;;4.00;78.55;99651.28;5015086;28;11428;-68
2023/03/07 07:26:40;;;;;;;;;1.00;0.75;;;;;4.01;78.25;99649.44;5015703;28;11442;-68
2023/03/07 07:29:07;;;;;;;;;4.50;4.50;;;;;4.02;78.32;99648.47;5008973;28;11497;-68
2023/03/07 07:31:34;;;;;;;;;2.00;2.00;;;;;4.02;77.79;99649.28;5009294;28;11514;-68
2023/03/07 07:34:02;;;;;;;;;0.75;0.50;;;;;4.02;78.02;99649.28;5004930;28;11467;-65
2023/03/07 07:36:31;;;;;;;;;0.00;0.00;;;;;3.95;77.51;99648.34;4999513;28;11494;-67
2023/03/07 07:38:58;;;;;;;;;0.00;0.00;;;;;3.89;77.07;99655.25;4994417;28;13092;-67
2023/03/07 07:41:25;;;;;;;;;0.25;0.25;;;;;3.85;77.39;99647.75;4993771;28;11538;-65
2023/03/07 07:43:54;;;;;;;;;0.00;0.00;;;;;3.81;77.25;99657.97;4989698;28;11555;-67
2023/03/07 07:46:29;;;;;;;;;0.00;0.00;;;;;3.77;77.67;99656.69;4997056;28;11474;-66
2023/03/07 07:48:56;;;;;;;;;0.75;0.00;;;;;3.79;77.83;99670.63;4996714;28;12335;-69
2023/03/07 07:51:25;;;;;;;;;0.00;0.00;;;;;3.83;78.31;99663.09;5001042;28;11475;-69
2023/03/07 07:53:51;;;;;;;;;0.00;0.00;;;;;3.82;77.61;99664.94;4999328;28;11532;-66
2023/03/07 07:56:18;;;;;;;;;0.00;0.00;;;;;3.85;77.82;99669.91;5000244;28;12259;-67
2023/03/07 07:58:45;;;;;;;;;7.00;7.00;;;;;3.85;78.08;99661.06;5002938;28;11440;-68
2023/03/07 08:01:18;;;;;;;;;4.75;2.00;;;;;3.83;77.52;99666.59;4997677;28;11540;-67
2023/03/07 08:03:45;;;;;;;;;0.25;0.00;;;;;3.81;78.04;99663.28;4991532;28;11559;-64
2023/03/07 08:06:12;;;;;;;;;0.00;0.00;;;;;3.86;78.38;99668.91;4997141;28;11500;-68
2023/03/07 08:08:39;;;;;;;;;0.00;0.00;;;;;3.89;78.05;99671.22;4995607;28;11549;-67
2023/03/07 08:11:06;;;;;;;;;0.00;0.00;;;;;3.91;77.99;99677.16;4998174;28;11456;-68
2023/03/07 08:13:32;;;;;;;;;0.75;0.00;;;;;3.92;78.18;99676.16;4990093;28;12273;-65
2023/03/07 08:15:59;;;;;;;;;0.00;0.00;;;;;3.94;77.57;99683.97;4992229;28;11458;-67
2023/03/07 08:18:25;;;;;;;;;0.00;0.00;;;;;3.96;77.96;99677.44;4995335;28;12264;-67
2023/03/07 08:20:52;;;;;;;;;0.00;0.00;;;;;3.92;78.19;99676.16;4988035;28;12191;-68
2023/03/07 08:23:19;;;;;;;;;0.00;0.00;;;;;3.94;78.25;99681.31;4990540;28;11462;-67
2023/03/07 08:25:45;;;;;;;;;0.00;0.00;;;;;3.97;78.28;99675.63;4990975;28;11486;-64
2023/03/07 08:28:12;;;;;;;;;0.00;0.00;;;;;3.97;78.29;99680.97;4991083;28;11603;-69
2023/03/07 08:30:38;;;;;;;;;0.00;0.00;;;;;4.01;78.09;99681.41;4995781;28;11470;-68
2023/03/07 08:33:05;;;;;;;;;0.00;0.00;;;;;4.03;78.03;99685.56;4990392;28;11452;-66
2023/03/07 08:35:31;;;;;;;;;0.00;0.00;;;;;4.02;77.48;99691.91;4991663;28;12287;-68
2023/03/07 08:38:00;;;;;;;;;1.00;1.00;;;;;4.00;77.89;99687.75;4995253;28;11567;-68
2023/03/07 08:40:28;;;;;;;;;0.00;0.00;;;;;3.94;78.24;99684.81;4993895;28;11440;-65
2023/03/07 08:42:55;;;;;;;;;0.00;0.00;;;;;3.81;77.80;99689.06;4993046;28;11509;-67
2023/03/07 08:45:23;;;;;;;;;0.00;0.00;;;;;3.81;78.59;99686.41;4996939;28;11568;-68
2023/03/07 08:47:53;;;;;;;;;3.25;1.75;;;;;3.82;78.52;99683.56;4991439;28;11455;-67
2023/03/07 08:50:22;;;;;;;;;0.00;0.00;;;;;3.82;78.26;99685.41;4991719;28;12180;-70
2023/03/07 08:52:48;;;;;;;;;0.75;0.75;;;;;3.86;78.62;99686.72;4992016;28;12181;-67
2023/03/07 08:55:15;;;;;;;;;0.25;0.00;;;;;3.88;78.52;99682.84;4995814;28;11525;-65
2023/03/07 08:57:44;;;;;;;;;0.00;0.00;;;;;3.93;78.39;99693.81;5001622;28;11563;-67
2023/03/07 09:00:11;;;;;;;;;1.50;0.00;;;;;3.90;78.24;99683.50;4995889;28;11470;-68
2023/03/07 09:02:38;;;;;;;;;0.00;0.00;;;;;4.00;80.40;99688.56;5012291;28;11595;-65
2023/03/07 09:05:05;;;;;;;;;1.25;0.00;;;;;4.14;79.73;99690.44;5025609;28;11466;-67
2023/03/07 09:07:32;;;;;;;;;0.75;0.75;;;;;4.17;78.53;99691.91;5013787;28;12195;-68
2023/03/07 09:09:59;;;;;;;;;0.00;0.00;;;;;4.13;78.23;99688.81;5004654;28;11569;-69
2023/03/07 09:12:25;;;;;;;;;0.00;0.00;;;;;4.14;78.46;99690.44;5019544;28;11427;-65
2023/03/07 09:14:53;;;;;;;;;0.00;0.00;;;;;4.20;78.75;99679.06;5002333;28;11552;-65
2023/03/07 09:17:20;;;;;;;;;1.00;1.00;;;;;4.28;78.70;99682.66;5009951;28;11505;-66
2023/03/07 09:19:46;;;;;;;;;0.25;0.25;;;;;4.32;78.32;99683.94;5020416;28;11435;-66
2023/03/07 09:22:13;;;;;;;;;0.00;0.00;;;;;4.33;78.25;99686.41;5017468;28;11431;-67
2023/03/07 09:24:39;;;;;;;;;0.25;0.25;;;;;4.38;78.57;99681.41;5023270;28;11424;-68
2023/03/07 09:27:06;;;;;;;;;4.75;2.50;;;;;4.40;78.14;99687.34;5032552;28;11448;-68
2023/03/07 09:29:32;;;;;;;;;4.25;4.25;;;;;4.40;78.25;99692.69;5032351;28;11566;-65
2023/03/07 09:32:01;;;;;;;;;7.00;7.00;;;;;4.39;77.97;99691.03;5032401;28;12181;-67
2023/03/07 09:34:28;;;;;;;;;2.50;2.50;;;;;4.34;77.57;99695.25;5030867;28;11445;-68
2023/03/07 09:36:55;;;;;;;;;4.25;2.00;;;;;4.37;78.09;99703.69;5032271;28;11442;-67
2023/03/07 09:39:21;;;;;;;;;0.75;0.00;;;;;4.36;77.87;99702.03;5006932;28;11476;-67
2023/03/07 09:42:03;;;;;;;;;0.00;0.00;;;;;4.35;78.10;99696.91;5012524;28;11556;-68
2023/03/07 09:44:57;;;;;;;;;0.00;0.00;;;;;4.39;78.28;99699.03;5012018;28;11466;-68
2023/03/07 09:48:07;;;;;;;;;3.50;1.00;;;;;4.34;77.75;99696.09;4998034;28;11433;-68
2023/03/07 09:50:37;;;;;;;;;0.00;0.00;;;;;4.27;77.15;99700.47;4996244;28;11587;-68
2023/03/07 09:53:11;;;;;;;;;17.25;8.50;;;;;4.43;81.25;99708.31;5000931;28;11595;-69
2023/03/07 09:55:38;;;;;;;;;5.00;4.00;;;;;4.43;78.65;99710.97;4998993;28;11528;-68
2023/03/07 09:58:17;;;;;;;;;1.75;1.75;;;;;4.32;78.39;99708.75;5001469;28;11488;-68
2023/03/07 10:00:45;;;;;;;;;3.50;2.75;;;;;4.23;78.08;99709.84;5003956;28;12178;-68
2023/03/07 10:03:33;;;;;;;;;2.75;2.50;;;;;4.18;78.24;99705.06;5001434;28;11457;-67
2023/03/07 10:06:13;;;;;;;;;21.00;18.00;;;;;4.07;78.02;99704.66;4990558;28;11593;-69
2023/03/07 10:08:39;;;;;;;;;54.25;46.00;;;;;3.99;78.13;99713.56;5000524;28;11723;-68
2023/03/07 10:11:15;;;;;;;;;13.00;11.50;;;;;3.91;78.13;99708.28;5000530;28;11588;-68
2023/03/07 10:14:24;;;;;;;;;5.25;5.25;;;;;3.95;78.94;99699.75;4996547;28;11601;-69
2023/03/07 10:17:06;;;;;;;;;3.00;3.00;;;;;4.04;78.90;99697.84;4997046;28;11650;-65
2023/03/07 10:19:45;;;;;;;;;3.50;3.25;;;;;4.12;79.22;99704.94;4999798;28;11697;-65
2023/03/07 10:22:20;;;;;;;;;1.00;0.75;;;;;4.11;78.52;99698.78;5003221;28;11469;-69
2023/03/07 10:25:05;;;;;;;;;1.50;1.50;;;;;4.17;78.37;99703.41;4996412;28;11591;-69
2023/03/07 10:27:32;;;;;;;;;5.00;5.00;;;;;4.24;78.88;99708.81;4995681;28;11501;-69
2023/03/07 10:30:05;;;;;;;;;3.50;3.50;;;;;4.25;78.43;99702.47;5000230;28;11686;-70
2023/03/07 10:32:43;;;;;;;;;10.00;8.00;;;;;4.27;78.29;99700.47;5003297;28;11592;-70
2023/03/07 10:35:10;;;;;;;;;1.00;1.00;;;;;4.29;78.60;99701.09;4996100;28;11607;-69
2023/03/07 10:38:01;;;;;;;;;1.25;1.00;;;;;4.33;78.23;99704.25;5000190;28;11596;-66
2023/03/07 10:40:47;;;;;;;;;0.00;0.00;;;;;4.31;77.96;99706.28;4999121;28;11461;-69
2023/03/07 10:43:24;;;;;;;;;0.00;0.00;;;;;4.33;78.28;99712.22;5000830;28;11437;-70
2023/03/07 10:46:14;;;;;;;;;0.00;0.00;;;;;4.30;78.23;99709.97;4998553;28;11631;-68
2023/03/07 10:48:53;;;;;;;;;6.50;6.25;;;;;4.33;78.20;99710.38;4998479;28;11451;-68
2023/03/07 10:51:41;;;;;;;;;2.25;2.25;;;;;4.36;78.37;99706.56;4998613;28;11495;-69
2023/03/07 10:54:15;;;;;;;;;2.00;2.00;;;;;4.46;78.73;99712.47;4993720;28;11511;-70
2023/03/07 10:57:06;;;;;;;;;0.50;0.50;;;;;4.50;78.38;99713.75;4996369;28;11480;-70
2023/03/07 10:59:34;;;;;;;;;1.50;0.50;;;;;4.52;78.12;99718.88;4998830;28;11474;-67
2023/03/07 11:02:04;;;;;;;;;4.00;2.00;;;;;4.52;77.85;99718.88;4998929;28;11463;-70
2023/03/07 11:04:43;;;;;;;;;1.00;1.00;;;;;4.40;77.67;99732.66;4996980;28;11531;-67
2023/03/07 11:07:27;;;;;;;;;0.00;0.00;;;;;4.03;76.26;99741.47;4997874;28;11480;-69
2023/03/07 11:09:55;;;;;;;;;0.00;0.00;;;;;3.81;77.34;99737.81;4994490;28;11563;-67
2023/03/07 11:12:24;;;;;;;;;1.00;0.00;;;;;3.69;77.90;99741.91;5005747;28;12179;-68
2023/03/07 11:14:53;;;;;;;;;0.00;0.00;;;;;3.61;77.81;99747.28;5004755;28;12177;-69
2023/03/07 11:17:23;;;;;;;;;0.00;0.00;;;;;3.50;78.48;99745.00;4996865;28;11599;-70
2023/03/07 11:19:56;;;;;;;;;2.50;0.00;;;;;3.50;78.83;99745.84;5016362;28;12118;-67
2023/03/07 11:22:34;;;;;;;;;0.00;0.00;;;;;3.58;78.90;99740.47;5001052;28;11466;-69
2023/03/07 11:25:17;;;;;;;;;0.00;0.00;;;;;3.65;78.58;99745.94;4995381;28;11518;-69
2023/03/07 11:27:44;;;;;;;;;2.50;0.50;;;;;3.71;79.09;99732.72;5001721;28;12298;-69
2023/03/07 11:30:34;;;;;;;;;1.00;1.00;;;;;3.79;78.74;99739.81;4994152;28;12334;-70
2023/03/07 11:33:19;;;;;;;;;1.25;1.00;;;;;3.84;78.83;99737.44;5000052;28;11470;-70
2023/03/07 11:35:49;;;;;;;;;0.00;0.00;;;;;3.90;78.80;99723.44;5003700;28;11510;-66
2023/03/07 11:38:41;;;;;;;;;0.00;0.00;;;;;3.97;78.97;99727.06;4998402;28;11519;-64
2023/03/07 11:41:22;;;;;;;;;1.00;0.00;;;;;4.05;78.26;99725.31;4997227;28;11454;-67
2023/03/07 11:44:08;;;;;;;;;2.00;1.00;;;;;4.13;78.41;99722.56;5002215;28;11454;-65
2023/03/07 11:46:40;;;;;;;;;0.00;0.00;;;;;4.22;78.91;99732.16;4998997;28;11475;-66
2023/03/07 11:49:36;;;;;;;;;1.00;1.00;;;;;4.30;78.42;99728.59;4998699;28;11466;-64
2023/03/07 11:52:06;;;;;;;;;3.50;1.00;;;;;4.42;78.37;99730.63;4996789;28;11502;-69
2023/03/07 11:54:55;;;;;;;;;0.00;0.00;;;;;4.47;78.20;99733.56;4998933;28;11496;-67